sensor_id;sensor_type;location;lat;lon;timestamp;P1;durP1;ratioP1;P2;durP2;ratioP2
74670;SDS011;63196;39.564;2.628;2022-10-15T00:00:24;6.90;;;5.10;;
74670;SDS011;63196;39.564;2.628;2022-10-15T00:02:50;9.60;;;5.10;;
74670;SDS011;63196;39.564;2.628;2022-10-15T00:05:15;8.40;;;6.20;;
74670;SDS011;63196;39.564;2.628;2022-10-15T00:07:41;8.20;;;5.90;;
74670;SDS011;63196;39.564;2.628;2022-10-15T00:10:06;9.00;;;5.30;;
74670;SDS011;63196;39.564;2.628;2022-10-15T00:12:32;9.50;;;5.80;;
74670;SDS011;63196;39.564;2.628;2022-10-15T00:14:57;8.20;;;5.10;;
74670;SDS011;63196;39.564;2.628;2022-10-15T00:17:23;7.80;;;5.40;;
74670;SDS011;63196;39.564;2.628;2022-10-15T00:19:48;9.50;;;5.70;;
74670;SDS011;63196;39.564;2.628;2022-10-15T00:22:14;6.40;;;4.30;;
74670;SDS011;63196;39.564;2.628;2022-10-15T00:24:39;10.60;;;5.40;;
74670;SDS011;63196;39.564;2.628;2022-10-15T00:27:04;8.90;;;4.60;;
74670;SDS011;63196;39.564;2.628;2022-10-15T00:29:30;7.30;;;4.10;;
74670;SDS011;63196;39.564;2.628;2022-10-15T00:31:55;9.60;;;5.60;;
74670;SDS011;63196;39.564;2.628;2022-10-15T00:34:21;7.60;;;5.10;;
74670;SDS011;63196;39.564;2.628;2022-10-15T00:36:48;7.90;;;5.20;;
74670;SDS011;63196;39.564;2.628;2022-10-15T00:39:14;6.00;;;4.30;;
74670;SDS011;63196;39.564;2.628;2022-10-15T00:41:40;9.10;;;5.90;;
74670;SDS011;63196;39.564;2.628;2022-10-15T00:47:05;8.20;;;5.20;;
74670;SDS011;63196;39.564;2.628;2022-10-15T00:49:34;8.10;;;4.70;;
74670;SDS011;63196;39.564;2.628;2022-10-15T00:54:31;6.70;;;4.50;;
74670;SDS011;63196;39.564;2.628;2022-10-15T00:56:57;9.60;;;5.00;;
74670;SDS011;63196;39.564;2.628;2022-10-15T00:59:24;7.70;;;5.60;;
74670;SDS011;63196;39.564;2.628;2022-10-15T01:01:51;8.10;;;5.90;;
74670;SDS011;63196;39.564;2.628;2022-10-15T01:04:16;9.60;;;6.50;;
74670;SDS011;63196;39.564;2.628;2022-10-15T01:06:43;8.80;;;5.90;;
74670;SDS011;63196;39.564;2.628;2022-10-15T01:09:09;8.70;;;5.80;;
74670;SDS011;63196;39.564;2.628;2022-10-15T01:16:29;9.00;;;5.50;;
74670;SDS011;63196;39.564;2.628;2022-10-15T01:29:05;6.70;;;4.30;;
74670;SDS011;63196;39.564;2.628;2022-10-15T01:36:47;7.80;;;5.90;;
74670;SDS011;63196;39.564;2.628;2022-10-15T01:39:18;8.90;;;5.10;;
74670;SDS011;63196;39.564;2.628;2022-10-15T01:41:46;7.30;;;4.60;;
74670;SDS011;63196;39.564;2.628;2022-10-15T01:49:44;6.30;;;4.30;;
74670;SDS011;63196;39.564;2.628;2022-10-15T01:52:12;11.10;;;5.70;;
74670;SDS011;63196;39.564;2.628;2022-10-15T01:54:39;7.40;;;4.40;;
74670;SDS011;63196;39.564;2.628;2022-10-15T01:57:05;7.50;;;4.70;;
74670;SDS011;63196;39.564;2.628;2022-10-15T01:59:32;10.50;;;4.70;;
74670;SDS011;63196;39.564;2.628;2022-10-15T02:01:58;9.30;;;5.40;;
74670;SDS011;63196;39.564;2.628;2022-10-15T02:04:28;9.70;;;5.40;;
74670;SDS011;63196;39.564;2.628;2022-10-15T02:07:10;9.70;;;6.30;;
74670;SDS011;63196;39.564;2.628;2022-10-15T02:09:57;7.80;;;4.50;;
74670;SDS011;63196;39.564;2.628;2022-10-15T02:17:32;8.10;;;4.40;;
74670;SDS011;63196;39.564;2.628;2022-10-15T02:20:00;10.30;;;4.40;;
74670;SDS011;63196;39.564;2.628;2022-10-15T02:22:41;7.90;;;4.60;;
74670;SDS011;63196;39.564;2.628;2022-10-15T02:25:09;6.10;;;4.50;;
74670;SDS011;63196;39.564;2.628;2022-10-15T02:27:38;6.60;;;4.10;;
74670;SDS011;63196;39.564;2.628;2022-10-15T02:30:05;6.30;;;3.80;;
74670;SDS011;63196;39.564;2.628;2022-10-15T02:32:49;6.80;;;3.80;;
74670;SDS011;63196;39.564;2.628;2022-10-15T02:35:21;6.40;;;4.60;;
74670;SDS011;63196;39.564;2.628;2022-10-15T02:37:50;7.40;;;4.30;;
74670;SDS011;63196;39.564;2.628;2022-10-15T02:40:16;6.40;;;4.20;;
74670;SDS011;63196;39.564;2.628;2022-10-15T02:43:07;6.40;;;3.70;;
74670;SDS011;63196;39.564;2.628;2022-10-15T02:45:39;6.10;;;4.00;;
74670;SDS011;63196;39.564;2.628;2022-10-15T02:48:07;8.10;;;3.80;;
74670;SDS011;63196;39.564;2.628;2022-10-15T02:50:33;5.80;;;4.30;;
74670;SDS011;63196;39.564;2.628;2022-10-15T02:53:00;11.60;;;4.60;;
74670;SDS011;63196;39.564;2.628;2022-10-15T02:55:26;7.50;;;4.20;;
74670;SDS011;63196;39.564;2.628;2022-10-15T02:57:51;6.40;;;4.10;;
74670;SDS011;63196;39.564;2.628;2022-10-15T03:00:17;8.90;;;4.70;;
74670;SDS011;63196;39.564;2.628;2022-10-15T03:02:43;8.20;;;4.20;;
74670;SDS011;63196;39.564;2.628;2022-10-15T03:05:15;9.00;;;3.90;;
74670;SDS011;63196;39.564;2.628;2022-10-15T03:07:46;6.70;;;4.40;;
74670;SDS011;63196;39.564;2.628;2022-10-15T03:10:12;6.70;;;4.40;;
74670;SDS011;63196;39.564;2.628;2022-10-15T03:12:39;8.70;;;3.80;;
74670;SDS011;63196;39.564;2.628;2022-10-15T03:15:05;8.20;;;3.80;;
74670;SDS011;63196;39.564;2.628;2022-10-15T03:17:31;6.90;;;3.60;;
74670;SDS011;63196;39.564;2.628;2022-10-15T03:19:57;6.80;;;4.40;;
74670;SDS011;63196;39.564;2.628;2022-10-15T03:22:25;6.60;;;3.90;;
74670;SDS011;63196;39.564;2.628;2022-10-15T03:25:20;6.60;;;3.50;;
74670;SDS011;63196;39.564;2.628;2022-10-15T03:28:05;6.10;;;4.10;;
74670;SDS011;63196;39.564;2.628;2022-10-15T03:30:30;7.70;;;5.20;;
74670;SDS011;63196;39.564;2.628;2022-10-15T03:32:56;6.80;;;4.10;;
74670;SDS011;63196;39.564;2.628;2022-10-15T03:35:21;9.20;;;4.40;;
74670;SDS011;63196;39.564;2.628;2022-10-15T03:37:47;5.70;;;3.90;;
74670;SDS011;63196;39.564;2.628;2022-10-15T03:40:12;6.80;;;4.30;;
74670;SDS011;63196;39.564;2.628;2022-10-15T03:42:37;6.20;;;3.60;;
74670;SDS011;63196;39.564;2.628;2022-10-15T03:45:03;7.10;;;3.70;;
74670;SDS011;63196;39.564;2.628;2022-10-15T03:47:28;6.90;;;3.80;;
74670;SDS011;63196;39.564;2.628;2022-10-15T03:49:54;6.90;;;4.10;;
74670;SDS011;63196;39.564;2.628;2022-10-15T03:52:19;6.90;;;4.00;;
74670;SDS011;63196;39.564;2.628;2022-10-15T03:54:46;6.70;;;4.00;;
74670;SDS011;63196;39.564;2.628;2022-10-15T03:57:11;7.80;;;4.60;;
74670;SDS011;63196;39.564;2.628;2022-10-15T03:59:37;10.20;;;3.70;;
74670;SDS011;63196;39.564;2.628;2022-10-15T04:02:03;8.30;;;4.00;;
74670;SDS011;63196;39.564;2.628;2022-10-15T04:04:28;7.60;;;3.60;;
74670;SDS011;63196;39.564;2.628;2022-10-15T04:06:53;7.50;;;4.60;;
74670;SDS011;63196;39.564;2.628;2022-10-15T04:09:19;8.50;;;4.10;;
74670;SDS011;63196;39.564;2.628;2022-10-15T04:11:44;8.00;;;4.40;;
74670;SDS011;63196;39.564;2.628;2022-10-15T04:14:10;8.50;;;4.00;;
74670;SDS011;63196;39.564;2.628;2022-10-15T04:16:35;7.00;;;3.90;;
74670;SDS011;63196;39.564;2.628;2022-10-15T04:19:01;8.20;;;4.90;;
74670;SDS011;63196;39.564;2.628;2022-10-15T04:21:26;7.80;;;4.70;;
74670;SDS011;63196;39.564;2.628;2022-10-15T04:23:54;9.50;;;5.00;;
74670;SDS011;63196;39.564;2.628;2022-10-15T04:26:20;5.80;;;4.30;;
74670;SDS011;63196;39.564;2.628;2022-10-15T04:28:48;9.10;;;5.50;;
74670;SDS011;63196;39.564;2.628;2022-10-15T04:31:14;9.80;;;4.90;;
74670;SDS011;63196;39.564;2.628;2022-10-15T04:33:39;8.60;;;4.90;;
74670;SDS011;63196;39.564;2.628;2022-10-15T04:36:10;11.60;;;6.00;;
74670;SDS011;63196;39.564;2.628;2022-10-15T04:38:36;7.50;;;4.80;;
74670;SDS011;63196;39.564;2.628;2022-10-15T04:41:09;7.20;;;4.10;;
74670;SDS011;63196;39.564;2.628;2022-10-15T04:43:35;8.00;;;4.90;;
74670;SDS011;63196;39.564;2.628;2022-10-15T04:46:02;7.50;;;4.60;;
74670;SDS011;63196;39.564;2.628;2022-10-15T04:48:29;6.70;;;3.70;;
74670;SDS011;63196;39.564;2.628;2022-10-15T04:50:55;6.50;;;5.10;;
74670;SDS011;63196;39.564;2.628;2022-10-15T04:53:20;7.50;;;5.10;;
74670;SDS011;63196;39.564;2.628;2022-10-15T04:55:46;7.80;;;6.10;;
74670;SDS011;63196;39.564;2.628;2022-10-15T04:58:12;8.50;;;4.80;;
74670;SDS011;63196;39.564;2.628;2022-10-15T05:00:37;6.70;;;4.80;;
74670;SDS011;63196;39.564;2.628;2022-10-15T05:03:06;6.20;;;4.70;;
74670;SDS011;63196;39.564;2.628;2022-10-15T05:05:32;7.50;;;4.10;;
74670;SDS011;63196;39.564;2.628;2022-10-15T05:08:00;7.60;;;3.90;;
74670;SDS011;63196;39.564;2.628;2022-10-15T05:10:26;7.40;;;4.00;;
74670;SDS011;63196;39.564;2.628;2022-10-15T05:12:52;7.40;;;4.90;;
74670;SDS011;63196;39.564;2.628;2022-10-15T05:15:17;8.00;;;4.40;;
74670;SDS011;63196;39.564;2.628;2022-10-15T05:17:42;7.30;;;4.50;;
74670;SDS011;63196;39.564;2.628;2022-10-15T05:20:08;5.50;;;3.70;;
74670;SDS011;63196;39.564;2.628;2022-10-15T05:22:33;8.00;;;4.60;;
74670;SDS011;63196;39.564;2.628;2022-10-15T05:24:59;7.50;;;4.80;;
74670;SDS011;63196;39.564;2.628;2022-10-15T05:27:24;7.10;;;5.00;;
74670;SDS011;63196;39.564;2.628;2022-10-15T05:29:49;10.80;;;5.20;;
74670;SDS011;63196;39.564;2.628;2022-10-15T05:32:15;9.80;;;5.00;;
74670;SDS011;63196;39.564;2.628;2022-10-15T05:34:40;9.20;;;5.30;;
74670;SDS011;63196;39.564;2.628;2022-10-15T05:37:06;8.00;;;4.40;;
74670;SDS011;63196;39.564;2.628;2022-10-15T05:39:32;8.40;;;4.90;;
74670;SDS011;63196;39.564;2.628;2022-10-15T05:41:57;7.70;;;5.00;;
74670;SDS011;63196;39.564;2.628;2022-10-15T05:44:22;9.90;;;5.00;;
74670;SDS011;63196;39.564;2.628;2022-10-15T05:46:48;9.60;;;4.30;;
74670;SDS011;63196;39.564;2.628;2022-10-15T05:49:13;7.60;;;4.30;;
74670;SDS011;63196;39.564;2.628;2022-10-15T05:51:39;6.60;;;4.30;;
74670;SDS011;63196;39.564;2.628;2022-10-15T05:54:04;8.50;;;5.00;;
74670;SDS011;63196;39.564;2.628;2022-10-15T05:56:29;8.00;;;4.30;;
74670;SDS011;63196;39.564;2.628;2022-10-15T05:58:55;7.50;;;4.20;;
74670;SDS011;63196;39.564;2.628;2022-10-15T06:01:22;8.60;;;4.80;;
74670;SDS011;63196;39.564;2.628;2022-10-15T06:03:48;7.40;;;4.80;;
74670;SDS011;63196;39.564;2.628;2022-10-15T06:06:18;7.00;;;3.90;;
74670;SDS011;63196;39.564;2.628;2022-10-15T06:08:43;8.00;;;4.50;;
74670;SDS011;63196;39.564;2.628;2022-10-15T06:11:09;7.10;;;4.30;;
74670;SDS011;63196;39.564;2.628;2022-10-15T06:13:36;6.50;;;4.20;;
74670;SDS011;63196;39.564;2.628;2022-10-15T06:16:02;6.50;;;4.10;;
74670;SDS011;63196;39.564;2.628;2022-10-15T06:18:27;6.60;;;3.90;;
74670;SDS011;63196;39.564;2.628;2022-10-15T06:20:53;7.40;;;3.80;;
74670;SDS011;63196;39.564;2.628;2022-10-15T06:23:18;7.00;;;4.00;;
74670;SDS011;63196;39.564;2.628;2022-10-15T06:25:44;7.30;;;4.10;;
74670;SDS011;63196;39.564;2.628;2022-10-15T06:28:10;7.10;;;4.10;;
74670;SDS011;63196;39.564;2.628;2022-10-15T06:30:35;7.20;;;3.50;;
74670;SDS011;63196;39.564;2.628;2022-10-15T06:33:01;6.20;;;4.00;;
74670;SDS011;63196;39.564;2.628;2022-10-15T06:35:26;6.70;;;4.20;;
74670;SDS011;63196;39.564;2.628;2022-10-15T06:37:58;7.80;;;3.60;;
74670;SDS011;63196;39.564;2.628;2022-10-15T06:40:24;7.70;;;4.40;;
74670;SDS011;63196;39.564;2.628;2022-10-15T06:42:49;6.40;;;3.50;;
74670;SDS011;63196;39.564;2.628;2022-10-15T06:45:21;7.20;;;3.90;;
74670;SDS011;63196;39.564;2.628;2022-10-15T06:47:46;7.70;;;4.00;;
74670;SDS011;63196;39.564;2.628;2022-10-15T06:50:11;6.30;;;4.00;;
74670;SDS011;63196;39.564;2.628;2022-10-15T06:52:37;5.50;;;4.10;;
74670;SDS011;63196;39.564;2.628;2022-10-15T06:55:03;8.10;;;4.00;;
74670;SDS011;63196;39.564;2.628;2022-10-15T06:57:29;6.10;;;4.00;;
74670;SDS011;63196;39.564;2.628;2022-10-15T06:59:54;6.20;;;3.50;;
74670;SDS011;63196;39.564;2.628;2022-10-15T07:02:20;7.30;;;3.60;;
74670;SDS011;63196;39.564;2.628;2022-10-15T07:04:45;11.30;;;4.10;;
74670;SDS011;63196;39.564;2.628;2022-10-15T07:07:11;9.40;;;3.80;;
74670;SDS011;63196;39.564;2.628;2022-10-15T07:09:37;7.50;;;3.70;;
74670;SDS011;63196;39.564;2.628;2022-10-15T07:12:02;6.40;;;3.30;;
74670;SDS011;63196;39.564;2.628;2022-10-15T07:14:28;10.50;;;3.90;;
74670;SDS011;63196;39.564;2.628;2022-10-15T07:16:53;5.90;;;3.50;;
74670;SDS011;63196;39.564;2.628;2022-10-15T07:19:18;7.40;;;3.50;;
74670;SDS011;63196;39.564;2.628;2022-10-15T07:21:44;9.00;;;3.80;;
74670;SDS011;63196;39.564;2.628;2022-10-15T07:24:09;6.20;;;3.40;;
74670;SDS011;63196;39.564;2.628;2022-10-15T07:26:36;7.10;;;3.50;;
74670;SDS011;63196;39.564;2.628;2022-10-15T07:29:01;8.40;;;3.70;;
74670;SDS011;63196;39.564;2.628;2022-10-15T07:31:31;7.90;;;3.40;;
74670;SDS011;63196;39.564;2.628;2022-10-15T07:33:56;8.80;;;3.00;;
74670;SDS011;63196;39.564;2.628;2022-10-15T07:36:22;6.50;;;3.30;;
74670;SDS011;63196;39.564;2.628;2022-10-15T07:38:47;6.70;;;2.90;;
74670;SDS011;63196;39.564;2.628;2022-10-15T07:41:12;5.30;;;3.20;;
74670;SDS011;63196;39.564;2.628;2022-10-15T07:43:38;6.00;;;3.30;;
74670;SDS011;63196;39.564;2.628;2022-10-15T07:46:04;7.00;;;3.00;;
74670;SDS011;63196;39.564;2.628;2022-10-15T07:48:30;7.30;;;3.80;;
74670;SDS011;63196;39.564;2.628;2022-10-15T07:50:59;7.90;;;3.30;;
74670;SDS011;63196;39.564;2.628;2022-10-15T07:53:25;6.70;;;3.60;;
74670;SDS011;63196;39.564;2.628;2022-10-15T07:55:51;8.00;;;3.20;;
74670;SDS011;63196;39.564;2.628;2022-10-15T07:58:17;6.10;;;3.50;;
74670;SDS011;63196;39.564;2.628;2022-10-15T08:00:42;5.60;;;3.40;;
74670;SDS011;63196;39.564;2.628;2022-10-15T08:03:07;7.50;;;3.50;;
74670;SDS011;63196;39.564;2.628;2022-10-15T08:05:33;9.00;;;4.50;;
74670;SDS011;63196;39.564;2.628;2022-10-15T08:07:58;8.10;;;3.80;;
74670;SDS011;63196;39.564;2.628;2022-10-15T08:10:24;10.90;;;4.50;;
74670;SDS011;63196;39.564;2.628;2022-10-15T08:12:49;8.30;;;3.50;;
74670;SDS011;63196;39.564;2.628;2022-10-15T08:15:15;6.40;;;3.50;;
74670;SDS011;63196;39.564;2.628;2022-10-15T08:17:40;6.50;;;3.80;;
74670;SDS011;63196;39.564;2.628;2022-10-15T08:20:06;7.00;;;3.70;;
74670;SDS011;63196;39.564;2.628;2022-10-15T08:22:32;8.20;;;3.90;;
74670;SDS011;63196;39.564;2.628;2022-10-15T08:24:58;9.30;;;4.70;;
74670;SDS011;63196;39.564;2.628;2022-10-15T08:27:23;7.90;;;3.50;;
74670;SDS011;63196;39.564;2.628;2022-10-15T08:29:50;8.00;;;3.50;;
74670;SDS011;63196;39.564;2.628;2022-10-15T08:32:15;7.40;;;3.20;;
74670;SDS011;63196;39.564;2.628;2022-10-15T08:34:41;6.20;;;3.00;;
74670;SDS011;63196;39.564;2.628;2022-10-15T08:37:06;6.30;;;3.30;;
74670;SDS011;63196;39.564;2.628;2022-10-15T08:39:31;7.50;;;3.30;;
74670;SDS011;63196;39.564;2.628;2022-10-15T08:41:58;7.10;;;3.60;;
74670;SDS011;63196;39.564;2.628;2022-10-15T08:44:25;7.20;;;3.40;;
74670;SDS011;63196;39.564;2.628;2022-10-15T08:46:52;6.70;;;4.10;;
74670;SDS011;63196;39.564;2.628;2022-10-15T08:52:19;7.90;;;3.80;;
74670;SDS011;63196;39.564;2.628;2022-10-15T08:54:47;9.10;;;4.20;;
74670;SDS011;63196;39.564;2.628;2022-10-15T08:57:16;7.10;;;3.90;;
74670;SDS011;63196;39.564;2.628;2022-10-15T08:59:48;7.00;;;4.50;;
74670;SDS011;63196;39.564;2.628;2022-10-15T09:02:20;10.00;;;6.10;;
74670;SDS011;63196;39.564;2.628;2022-10-15T09:12:57;7.40;;;4.00;;
74670;SDS011;63196;39.564;2.628;2022-10-15T09:15:24;9.80;;;5.50;;
74670;SDS011;63196;39.564;2.628;2022-10-15T09:17:51;11.50;;;5.50;;
74670;SDS011;63196;39.564;2.628;2022-10-15T09:20:20;8.30;;;3.70;;
74670;SDS011;63196;39.564;2.628;2022-10-15T09:22:49;5.20;;;3.60;;
74670;SDS011;63196;39.564;2.628;2022-10-15T09:25:17;7.50;;;4.00;;
74670;SDS011;63196;39.564;2.628;2022-10-15T09:27:45;7.60;;;3.30;;
74670;SDS011;63196;39.564;2.628;2022-10-15T09:32:50;9.40;;;3.40;;
74670;SDS011;63196;39.564;2.628;2022-10-15T09:35:25;5.40;;;3.20;;
74670;SDS011;63196;39.564;2.628;2022-10-15T09:40:43;6.70;;;3.30;;
74670;SDS011;63196;39.564;2.628;2022-10-15T09:43:11;6.20;;;2.80;;
74670;SDS011;63196;39.564;2.628;2022-10-15T09:45:37;4.40;;;2.10;;
74670;SDS011;63196;39.564;2.628;2022-10-15T09:48:05;5.00;;;1.90;;
74670;SDS011;63196;39.564;2.628;2022-10-15T09:50:38;6.70;;;2.60;;
74670;SDS011;63196;39.564;2.628;2022-10-15T09:55:47;4.60;;;1.90;;
74670;SDS011;63196;39.564;2.628;2022-10-15T09:58:21;7.10;;;2.30;;
74670;SDS011;63196;39.564;2.628;2022-10-15T10:03:17;5.30;;;2.30;;
74670;SDS011;63196;39.564;2.628;2022-10-15T10:05:43;5.50;;;2.20;;
74670;SDS011;63196;39.564;2.628;2022-10-15T10:10:43;4.10;;;1.80;;
74670;SDS011;63196;39.564;2.628;2022-10-15T10:13:27;4.70;;;2.20;;
74670;SDS011;63196;39.564;2.628;2022-10-15T10:15:54;4.70;;;2.10;;
74670;SDS011;63196;39.564;2.628;2022-10-15T10:18:22;4.80;;;1.80;;
74670;SDS011;63196;39.564;2.628;2022-10-15T10:20:52;4.80;;;1.70;;
74670;SDS011;63196;39.564;2.628;2022-10-15T10:23:23;7.20;;;2.60;;
74670;SDS011;63196;39.564;2.628;2022-10-15T10:25:48;5.90;;;1.70;;
74670;SDS011;63196;39.564;2.628;2022-10-15T10:28:16;4.50;;;1.70;;
74670;SDS011;63196;39.564;2.628;2022-10-15T10:30:49;5.20;;;1.70;;
74670;SDS011;63196;39.564;2.628;2022-10-15T10:33:28;5.50;;;1.70;;
74670;SDS011;63196;39.564;2.628;2022-10-15T10:35:54;4.20;;;1.70;;
74670;SDS011;63196;39.564;2.628;2022-10-15T10:38:24;4.20;;;1.50;;
74670;SDS011;63196;39.564;2.628;2022-10-15T10:40:51;5.30;;;1.90;;
74670;SDS011;63196;39.564;2.628;2022-10-15T10:43:25;4.90;;;1.80;;
74670;SDS011;63196;39.564;2.628;2022-10-15T10:45:51;4.80;;;1.50;;
74670;SDS011;63196;39.564;2.628;2022-10-15T10:48:19;4.50;;;1.50;;
74670;SDS011;63196;39.564;2.628;2022-10-15T10:50:45;6.50;;;1.80;;
74670;SDS011;63196;39.564;2.628;2022-10-15T10:53:19;3.90;;;1.40;;
74670;SDS011;63196;39.564;2.628;2022-10-15T10:55:45;4.80;;;1.40;;
74670;SDS011;63196;39.564;2.628;2022-10-15T10:58:18;4.50;;;1.30;;
74670;SDS011;63196;39.564;2.628;2022-10-15T11:00:45;5.00;;;1.50;;
74670;SDS011;63196;39.564;2.628;2022-10-15T11:05:36;4.00;;;1.30;;
74670;SDS011;63196;39.564;2.628;2022-10-15T11:08:13;5.10;;;1.50;;
74670;SDS011;63196;39.564;2.628;2022-10-15T11:15:55;4.10;;;1.20;;
74670;SDS011;63196;39.564;2.628;2022-10-15T11:21:36;3.20;;;1.40;;
74670;SDS011;63196;39.564;2.628;2022-10-15T11:29:27;3.40;;;1.20;;
74670;SDS011;63196;39.564;2.628;2022-10-15T11:39:53;4.20;;;1.00;;
74670;SDS011;63196;39.564;2.628;2022-10-15T11:42:29;4.10;;;1.20;;
74670;SDS011;63196;39.564;2.628;2022-10-15T11:50:11;3.40;;;0.80;;
74670;SDS011;63196;39.564;2.628;2022-10-15T11:55:09;4.40;;;0.90;;
74670;SDS011;63196;39.564;2.628;2022-10-15T11:57:36;3.80;;;0.90;;
74670;SDS011;63196;39.564;2.628;2022-10-15T12:00:16;3.40;;;1.00;;
74670;SDS011;63196;39.564;2.628;2022-10-15T12:02:44;4.20;;;0.80;;
74670;SDS011;63196;39.564;2.628;2022-10-15T12:05:20;4.80;;;1.30;;
74670;SDS011;63196;39.564;2.628;2022-10-15T12:07:51;4.60;;;0.90;;
74670;SDS011;63196;39.564;2.628;2022-10-15T12:20:42;4.10;;;1.20;;
74670;SDS011;63196;39.564;2.628;2022-10-15T12:23:25;4.30;;;1.00;;
74670;SDS011;63196;39.564;2.628;2022-10-15T12:25:51;3.70;;;1.00;;
74670;SDS011;63196;39.564;2.628;2022-10-15T12:28:18;4.70;;;1.10;;
74670;SDS011;63196;39.564;2.628;2022-10-15T12:31:17;3.20;;;0.80;;
74670;SDS011;63196;39.564;2.628;2022-10-15T12:33:36;3.30;;;0.90;;
74670;SDS011;63196;39.564;2.628;2022-10-15T12:36:04;3.80;;;1.00;;
74670;SDS011;63196;39.564;2.628;2022-10-15T12:38:34;2.90;;;0.80;;
74670;SDS011;63196;39.564;2.628;2022-10-15T12:41:03;4.80;;;0.90;;
74670;SDS011;63196;39.564;2.628;2022-10-15T12:43:29;3.40;;;0.90;;
74670;SDS011;63196;39.564;2.628;2022-10-15T12:46:02;3.20;;;0.90;;
74670;SDS011;63196;39.564;2.628;2022-10-15T12:48:33;4.50;;;1.20;;
74670;SDS011;63196;39.564;2.628;2022-10-15T12:53:59;2.60;;;0.90;;
74670;SDS011;63196;39.564;2.628;2022-10-15T12:56:37;4.10;;;1.10;;
74670;SDS011;63196;39.564;2.628;2022-10-15T12:59:04;3.20;;;0.90;;
74670;SDS011;63196;39.564;2.628;2022-10-15T13:01:50;3.70;;;1.00;;
74670;SDS011;63196;39.564;2.628;2022-10-15T13:04:16;3.30;;;0.90;;
74670;SDS011;63196;39.564;2.628;2022-10-15T13:06:42;3.40;;;1.10;;
74670;SDS011;63196;39.564;2.628;2022-10-15T13:16:43;2.70;;;0.90;;
74670;SDS011;63196;39.564;2.628;2022-10-15T13:19:19;2.80;;;0.70;;
74670;SDS011;63196;39.564;2.628;2022-10-15T13:21:55;3.80;;;1.10;;
74670;SDS011;63196;39.564;2.628;2022-10-15T13:24:22;3.20;;;0.80;;
74670;SDS011;63196;39.564;2.628;2022-10-15T13:31:38;3.70;;;1.00;;
74670;SDS011;63196;39.564;2.628;2022-10-15T13:36:46;5.10;;;1.10;;
74670;SDS011;63196;39.564;2.628;2022-10-15T13:39:28;4.00;;;1.00;;
74670;SDS011;63196;39.564;2.628;2022-10-15T13:44:29;4.00;;;0.90;;
74670;SDS011;63196;39.564;2.628;2022-10-15T13:46:54;2.70;;;0.70;;
74670;SDS011;63196;39.564;2.628;2022-10-15T13:49:20;4.10;;;1.00;;
74670;SDS011;63196;39.564;2.628;2022-10-15T13:51:47;3.40;;;1.00;;
74670;SDS011;63196;39.564;2.628;2022-10-15T13:54:18;4.40;;;1.10;;
74670;SDS011;63196;39.564;2.628;2022-10-15T13:56:56;3.40;;;1.10;;
74670;SDS011;63196;39.564;2.628;2022-10-15T13:59:24;3.90;;;1.20;;
74670;SDS011;63196;39.564;2.628;2022-10-15T14:02:00;4.40;;;1.00;;
74670;SDS011;63196;39.564;2.628;2022-10-15T14:04:28;3.00;;;0.80;;
74670;SDS011;63196;39.564;2.628;2022-10-15T14:06:59;3.40;;;1.20;;
74670;SDS011;63196;39.564;2.628;2022-10-15T14:09:28;4.80;;;1.20;;
74670;SDS011;63196;39.564;2.628;2022-10-15T14:11:54;3.60;;;1.00;;
74670;SDS011;63196;39.564;2.628;2022-10-15T14:14:27;4.20;;;1.00;;
74670;SDS011;63196;39.564;2.628;2022-10-15T14:16:53;5.00;;;1.00;;
74670;SDS011;63196;39.564;2.628;2022-10-15T14:21:46;4.20;;;0.90;;
74670;SDS011;63196;39.564;2.628;2022-10-15T14:24:18;3.90;;;1.30;;
74670;SDS011;63196;39.564;2.628;2022-10-15T14:26:44;3.30;;;1.10;;
74670;SDS011;63196;39.564;2.628;2022-10-15T14:29:18;2.50;;;0.80;;
74670;SDS011;63196;39.564;2.628;2022-10-15T14:31:47;4.50;;;1.20;;
74670;SDS011;63196;39.564;2.628;2022-10-15T14:36:57;2.90;;;0.70;;
74670;SDS011;63196;39.564;2.628;2022-10-15T14:39:27;3.40;;;1.10;;
74670;SDS011;63196;39.564;2.628;2022-10-15T14:41:53;5.00;;;1.40;;
74670;SDS011;63196;39.564;2.628;2022-10-15T14:44:19;2.90;;;1.00;;
74670;SDS011;63196;39.564;2.628;2022-10-15T14:46:46;3.80;;;1.10;;
74670;SDS011;63196;39.564;2.628;2022-10-15T14:49:23;5.30;;;1.10;;
74670;SDS011;63196;39.564;2.628;2022-10-15T14:51:54;2.80;;;1.00;;
74670;SDS011;63196;39.564;2.628;2022-10-15T14:54:22;3.20;;;1.00;;
74670;SDS011;63196;39.564;2.628;2022-10-15T14:56:49;3.40;;;1.10;;
74670;SDS011;63196;39.564;2.628;2022-10-15T14:59:16;3.00;;;1.00;;
74670;SDS011;63196;39.564;2.628;2022-10-15T15:01:52;3.80;;;1.10;;
74670;SDS011;63196;39.564;2.628;2022-10-15T15:04:34;2.90;;;0.80;;
74670;SDS011;63196;39.564;2.628;2022-10-15T15:07:00;4.30;;;1.40;;
74670;SDS011;63196;39.564;2.628;2022-10-15T15:09:26;3.60;;;1.30;;
74670;SDS011;63196;39.564;2.628;2022-10-15T15:11:51;3.60;;;1.10;;
74670;SDS011;63196;39.564;2.628;2022-10-15T15:14:19;2.70;;;1.10;;
74670;SDS011;63196;39.564;2.628;2022-10-15T15:16:47;3.10;;;1.00;;
74670;SDS011;63196;39.564;2.628;2022-10-15T15:19:13;3.80;;;1.10;;
74670;SDS011;63196;39.564;2.628;2022-10-15T15:21:38;3.00;;;1.00;;
74670;SDS011;63196;39.564;2.628;2022-10-15T15:24:04;4.80;;;1.40;;
74670;SDS011;63196;39.564;2.628;2022-10-15T15:26:29;4.40;;;1.20;;
74670;SDS011;63196;39.564;2.628;2022-10-15T15:28:55;6.00;;;1.30;;
74670;SDS011;63196;39.564;2.628;2022-10-15T15:31:20;4.50;;;1.20;;
74670;SDS011;63196;39.564;2.628;2022-10-15T15:33:46;3.90;;;1.10;;
74670;SDS011;63196;39.564;2.628;2022-10-15T15:36:12;3.80;;;1.20;;
74670;SDS011;63196;39.564;2.628;2022-10-15T15:38:41;2.80;;;1.00;;
74670;SDS011;63196;39.564;2.628;2022-10-15T15:43:38;4.20;;;1.30;;
74670;SDS011;63196;39.564;2.628;2022-10-15T15:46:04;4.90;;;1.70;;
74670;SDS011;63196;39.564;2.628;2022-10-15T15:48:30;5.30;;;1.40;;
74670;SDS011;63196;39.564;2.628;2022-10-15T15:50:57;4.90;;;1.20;;
74670;SDS011;63196;39.564;2.628;2022-10-15T15:53:23;4.10;;;1.10;;
74670;SDS011;63196;39.564;2.628;2022-10-15T15:55:49;4.20;;;1.10;;
74670;SDS011;63196;39.564;2.628;2022-10-15T15:58:14;5.10;;;1.80;;
74670;SDS011;63196;39.564;2.628;2022-10-15T16:00:39;3.40;;;1.30;;
74670;SDS011;63196;39.564;2.628;2022-10-15T16:03:05;4.20;;;1.10;;
74670;SDS011;63196;39.564;2.628;2022-10-15T16:05:32;3.30;;;1.60;;
74670;SDS011;63196;39.564;2.628;2022-10-15T16:07:58;3.20;;;1.10;;
74670;SDS011;63196;39.564;2.628;2022-10-15T16:10:23;4.20;;;1.40;;
74670;SDS011;63196;39.564;2.628;2022-10-15T16:12:49;4.30;;;1.30;;
74670;SDS011;63196;39.564;2.628;2022-10-15T16:15:14;5.60;;;1.50;;
74670;SDS011;63196;39.564;2.628;2022-10-15T16:17:40;4.00;;;1.40;;
74670;SDS011;63196;39.564;2.628;2022-10-15T16:20:05;3.90;;;1.10;;
74670;SDS011;63196;39.564;2.628;2022-10-15T16:22:31;3.40;;;1.10;;
74670;SDS011;63196;39.564;2.628;2022-10-15T16:24:56;3.80;;;1.40;;
74670;SDS011;63196;39.564;2.628;2022-10-15T16:27:22;3.80;;;1.30;;
74670;SDS011;63196;39.564;2.628;2022-10-15T16:29:48;3.10;;;1.60;;
74670;SDS011;63196;39.564;2.628;2022-10-15T16:32:13;4.10;;;1.70;;
74670;SDS011;63196;39.564;2.628;2022-10-15T16:34:39;5.00;;;1.40;;
74670;SDS011;63196;39.564;2.628;2022-10-15T16:37:04;5.80;;;2.10;;
74670;SDS011;63196;39.564;2.628;2022-10-15T16:39:30;6.30;;;1.90;;
74670;SDS011;63196;39.564;2.628;2022-10-15T16:41:55;3.50;;;1.70;;
74670;SDS011;63196;39.564;2.628;2022-10-15T16:44:20;4.30;;;1.60;;
74670;SDS011;63196;39.564;2.628;2022-10-15T16:46:46;3.70;;;1.60;;
74670;SDS011;63196;39.564;2.628;2022-10-15T16:49:11;3.60;;;1.50;;
74670;SDS011;63196;39.564;2.628;2022-10-15T16:51:36;4.40;;;1.90;;
74670;SDS011;63196;39.564;2.628;2022-10-15T16:54:02;4.30;;;1.70;;
74670;SDS011;63196;39.564;2.628;2022-10-15T16:56:28;5.90;;;1.60;;
74670;SDS011;63196;39.564;2.628;2022-10-15T16:58:54;4.10;;;1.50;;
74670;SDS011;63196;39.564;2.628;2022-10-15T17:01:27;4.20;;;1.90;;